Houston, Texas
Traffic Map
Current Weather Conditions
Houston, Texas
Few Clouds Light Fog
Few Clouds
15°
Feels Like: 15°
Wind Chill: 15° Ceiling: Unl
Heat Index: 15° Visibility: 10mi
Dew Point: 13° Wind: 0mph
Humidity: 90% Direction: ° ()
Pressure: 30.23in Gusts: 0mph
Raw Report DataKIAH 121353Z 00000KT 10SM BCFG FEW004 15/13 A3023 RMK AO2 SLP235 T01500133
Traffic Incident Summary
Active as of:
Severity:
Category:
InformationThere was an issue retrieving the traffic information for this location. Please try a different location or try again shortly.
Advertisements
Track Severe Weather on mobile